createdAt,value
2018-12-29T00:02:13.803Z,100991.69
2018-12-29T00:04:42.891Z,100992.95
2018-12-29T00:07:12.047Z,100989.48
2018-12-29T00:09:40.748Z,101000.81
2018-12-29T00:12:09.786Z,100996.91
2018-12-29T00:14:38.766Z,100996.45
2018-12-29T00:17:07.462Z,100999.06
2018-12-29T00:19:36.147Z,100988.17
2018-12-29T00:22:05.022Z,100988.61
2018-12-29T00:24:33.713Z,100984.62
2018-12-29T00:27:03.228Z,100977.67
2018-12-29T00:29:31.920Z,100979.00
2018-12-29T00:32:00.607Z,100978.98
2018-12-29T00:34:29.311Z,100972.02
2018-12-29T00:36:59.192Z,100969.86
2018-12-29T00:39:28.292Z,100969.41
2018-12-29T00:41:56.981Z,100970.30
2018-12-29T00:44:25.667Z,100975.47
2018-12-29T00:46:54.361Z,100979.39
2018-12-29T00:49:23.042Z,100976.37
2018-12-29T00:51:52.045Z,100981.61
2018-12-29T00:54:20.731Z,100984.23
2018-12-29T00:56:49.499Z,100975.02
2018-12-29T00:59:18.399Z,100967.16
2018-12-29T01:01:47.347Z,100979.45
2018-12-29T01:04:16.063Z,100985.99
2018-12-29T01:06:44.827Z,100981.66
2018-12-29T01:09:13.852Z,100989.91
2018-12-29T01:11:42.613Z,101001.28
2018-12-29T01:14:11.314Z,101005.62
2018-12-29T01:16:40.007Z,101003.44
2018-12-29T01:19:08.960Z,101009.98
2018-12-29T01:21:37.652Z,101001.71
2018-12-29T01:24:06.412Z,101004.31
2018-12-29T01:26:35.097Z,100995.60
2018-12-29T01:29:04.131Z,101000.81
2018-12-29T01:31:32.827Z,101006.95
2018-12-29T01:34:01.827Z,101006.07
2018-12-29T01:36:30.825Z,101006.06
2018-12-29T01:38:59.595Z,101009.56
2018-12-29T01:41:28.344Z,100999.09
2018-12-29T01:43:57.045Z,100996.48
2018-12-29T01:46:25.736Z,100993.44
2018-12-29T01:48:54.437Z,100997.37
2018-12-29T01:51:23.162Z,101001.29
2018-12-29T01:53:52.157Z,100992.13
2018-12-29T01:56:20.922Z,100992.56
2018-12-29T01:58:49.637Z,100988.64
2018-12-29T02:01:18.408Z,100990.37
2018-12-29T02:03:47.390Z,100984.28
2018-12-29T02:06:16.106Z,100984.28
2018-12-29T02:08:44.792Z,100984.29
2018-12-29T02:11:13.489Z,100982.54
2018-12-29T02:13:42.256Z,100977.33
2018-12-29T02:16:11.534Z,100980.81
2018-12-29T02:18:40.622Z,100980.80
2018-12-29T02:21:09.397Z,100986.91
2018-12-29T02:23:38.102Z,100993.89
2018-12-29T02:26:06.789Z,100995.63
2018-12-29T02:28:35.483Z,100998.66
2018-12-29T02:31:04.502Z,100999.55
2018-12-29T02:33:33.228Z,100996.91
2018-12-29T02:36:01.913Z,100993.45
2018-12-29T02:38:30.614Z,101000.83
2018-12-29T02:40:59.376Z,101006.94
2018-12-29T02:43:28.403Z,101000.81
2018-12-29T02:45:57.103Z,100999.95
2018-12-29T02:48:25.793Z,101000.36
2018-12-29T02:50:54.491Z,100994.69
2018-12-29T02:53:24.153Z,100992.11
2018-12-29T02:55:52.963Z,100979.94
2018-12-29T02:58:22.105Z,100976.02
2018-12-29T03:00:50.797Z,100966.84
2018-12-29T03:03:19.488Z,100965.13
2018-12-29T03:05:48.176Z,100972.55
2018-12-29T03:08:16.888Z,100979.51
2018-12-29T03:10:45.575Z,100979.05
2018-12-29T03:13:14.271Z,100976.91
2018-12-29T03:15:42.967Z,100969.50
2018-12-29T03:18:11.647Z,100977.75
2018-12-29T03:20:40.662Z,100979.06
2018-12-29T03:23:09.341Z,100981.25
2018-12-29T03:25:38.102Z,100969.47
2018-12-29T03:28:06.789Z,100968.20
2018-12-29T03:30:35.679Z,100966.43
2018-12-29T03:35:40.115Z,100972.97
2018-12-29T03:38:08.883Z,100966.45
2018-12-29T03:40:37.960Z,100980.38
2018-12-29T03:43:06.771Z,100978.14
2018-12-29T03:45:35.534Z,100983.36
2018-12-29T03:48:04.553Z,100978.98
2018-12-29T03:53:07.152Z,100979.28
2018-12-29T03:55:35.913Z,100977.61
2018-12-29T03:58:04.729Z,100981.12
2018-12-29T04:00:33.480Z,100976.86
2018-12-29T04:03:02.182Z,100970.75
2018-12-29T04:05:31.614Z,100975.56
2018-12-29T04:08:00.604Z,100970.77
2018-12-29T04:10:29.275Z,100972.52
2018-12-29T04:12:59.981Z,100975.55
2018-12-29T04:15:28.682Z,100972.45
2018-12-29T04:17:57.365Z,100973.67
2018-12-29T04:20:26.125Z,100968.86
2018-12-29T04:22:54.882Z,100970.67
2018-12-29T04:25:25.512Z,100972.89
2018-12-29T04:30:28.610Z,100974.23
2018-12-29T04:32:57.290Z,100969.88
2018-12-29T04:35:25.984Z,100979.03
2018-12-29T04:37:55.269Z,100974.69
2018-12-29T04:40:23.957Z,100974.22
2018-12-29T04:42:52.972Z,100974.23
2018-12-29T04:45:21.715Z,100969.44
2018-12-29T04:47:50.398Z,100968.61
2018-12-29T04:50:19.158Z,100971.22
2018-12-29T04:52:47.842Z,100971.65
2018-12-29T04:55:16.629Z,100975.16
2018-12-29T04:57:45.301Z,100979.06
2018-12-29T05:00:13.988Z,100990.83
2018-12-29T05:03:01.921Z,100991.62
2018-12-29T05:05:30.608Z,100992.50
2018-12-29T05:07:59.314Z,100983.39
2018-12-29T05:10:27.998Z,100980.77
2018-12-29T05:12:56.680Z,100982.05
2018-12-29T05:15:25.373Z,100975.91
2018-12-29T05:17:54.064Z,100971.60
2018-12-29T05:20:22.756Z,100965.06
2018-12-29T05:23:10.411Z,100955.48
2018-12-29T05:25:39.135Z,100962.45
2018-12-29T05:28:07.821Z,100957.23
2018-12-29T05:30:36.501Z,100950.69
2018-12-29T05:33:05.198Z,100952.87
2018-12-29T05:35:33.893Z,100955.52
2018-12-29T05:38:21.808Z,100955.98
2018-12-29T05:40:50.865Z,100962.52
2018-12-29T05:43:19.569Z,100959.03
2018-12-29T05:46:07.579Z,100951.19
2018-12-29T05:48:36.274Z,100955.55
2018-12-29T05:51:24.302Z,100953.37
2018-12-29T05:53:52.992Z,100951.17
2018-12-29T05:56:21.678Z,100955.53
2018-12-29T05:58:50.548Z,100967.75
2018-12-29T06:01:38.556Z,100972.97
2018-12-29T06:04:26.456Z,100980.78
2018-12-29T06:06:55.140Z,100979.48
2018-12-29T06:09:23.841Z,100983.42
2018-12-29T06:11:52.538Z,100985.60
2018-12-29T06:14:21.238Z,100993.00
2018-12-29T06:16:49.944Z,100997.35
2018-12-29T06:19:18.974Z,100996.89
2018-12-29T06:24:22.188Z,100997.30
2018-12-29T06:26:50.912Z,100997.73
2018-12-29T06:29:19.608Z,101002.51
2018-12-29T06:31:48.319Z,100999.87
2018-12-29T06:34:17.021Z,100993.78
2018-12-29T06:39:52.807Z,100999.47
2018-12-29T06:42:21.503Z,101001.62
2018-12-29T06:44:50.218Z,101015.53
2018-12-29T06:47:18.918Z,101017.67
2018-12-29T06:49:47.941Z,101025.45
2018-12-29T06:52:16.686Z,101031.57
2018-12-29T06:54:45.381Z,101034.08
2018-12-29T07:00:07.372Z,101034.11
2018-12-29T07:05:10.991Z,101041.99
2018-12-29T07:10:13.618Z,101053.41
2018-12-29T07:12:42.594Z,101052.08
2018-12-29T07:15:11.276Z,101055.03
2018-12-29T07:17:39.959Z,101056.77
2018-12-29T07:20:08.656Z,101066.38
2018-12-29T07:22:37.334Z,101068.55
2018-12-29T07:25:06.153Z,101073.30
2018-12-29T07:27:34.911Z,101079.94
2018-12-29T07:30:22.728Z,101072.59
2018-12-29T07:32:51.415Z,101080.43
2018-12-29T07:35:20.106Z,101085.58
2018-12-29T07:37:48.790Z,101081.67
2018-12-29T07:40:17.470Z,101084.37
2018-12-29T07:42:46.159Z,101086.09
2018-12-29T07:45:14.867Z,101086.99
2018-12-29T07:47:43.677Z,101085.25
2018-12-29T07:50:31.588Z,101089.20
2018-12-29T07:53:00.340Z,101079.16
2018-12-29T07:55:29.034Z,101081.77
2018-12-29T08:00:32.403Z,101076.08
2018-12-29T08:03:01.186Z,101079.52
2018-12-29T08:05:29.862Z,101072.51
2018-12-29T08:07:58.908Z,101077.39
2018-12-29T08:10:27.624Z,101083.12
2018-12-29T08:12:56.300Z,101074.39
2018-12-29T08:17:59.112Z,101080.94
2018-12-29T08:23:02.556Z,101073.06
2018-12-29T08:25:31.250Z,101072.15
2018-12-29T08:27:59.946Z,101077.84
2018-12-29T08:30:28.631Z,101078.25
2018-12-29T08:35:32.109Z,101071.17
2018-12-29T08:40:34.882Z,101072.00
2018-12-29T08:43:03.700Z,101075.81
2018-12-29T08:45:32.460Z,101082.80
2018-12-29T08:48:01.253Z,101077.99
2018-12-29T08:50:30.041Z,101072.43
2018-12-29T08:52:58.827Z,101073.73
2018-12-29T08:58:02.145Z,101055.34
2018-12-29T09:03:05.228Z,101055.02
2018-12-29T09:05:33.924Z,101056.33
2018-12-29T09:08:02.890Z,101037.14
2018-12-29T09:10:31.593Z,101042.38
2018-12-29T09:15:34.653Z,101047.33
2018-12-29T09:18:03.443Z,101057.34
2018-12-29T09:20:32.177Z,101069.06
2018-12-29T09:23:00.880Z,101063.31
2018-12-29T09:25:29.978Z,101064.52
2018-12-29T09:28:17.874Z,101060.91
2018-12-29T09:33:20.714Z,101065.87
2018-12-29T09:38:43.809Z,101072.84
2018-12-29T09:41:31.787Z,101069.27
2018-12-29T09:46:35.285Z,101072.22
2018-12-29T09:49:04.066Z,101074.12
2018-12-29T09:51:32.834Z,101065.45
2018-12-29T09:54:01.556Z,101064.84
2018-12-29T09:59:23.724Z,101071.58
2018-12-29T10:01:52.551Z,101073.36
2018-12-29T10:04:21.238Z,101072.48
2018-12-29T10:06:50.007Z,101078.95
2018-12-29T10:09:18.704Z,101080.61
2018-12-29T10:11:47.396Z,101085.00
2018-12-29T10:14:35.309Z,101087.97
2018-12-29T10:17:04.008Z,101075.62
2018-12-29T10:19:33.131Z,101080.46
2018-12-29T10:22:01.798Z,101082.66
2018-12-29T10:24:49.954Z,101084.36
2018-12-29T10:27:18.671Z,101079.88
2018-12-29T10:30:06.780Z,101069.16
2018-12-29T10:35:10.371Z,101057.13
2018-12-29T10:37:39.378Z,101062.62
2018-12-29T10:40:08.425Z,101057.94
2018-12-29T10:42:37.127Z,101059.27
2018-12-29T10:50:35.997Z,101056.77
2018-12-29T10:53:04.953Z,101059.27
2018-12-29T10:55:34.142Z,101056.63
2018-12-29T10:58:02.996Z,101042.95
2018-12-29T11:00:35.195Z,101029.14
2018-12-29T11:03:02.591Z,101034.83
2018-12-29T11:05:32.024Z,101023.42
2018-12-29T11:08:01.192Z,101001.58
2018-12-29T11:11:09.873Z,100989.20
2018-12-29T11:13:39.098Z,100979.15
2018-12-29T11:16:09.681Z,100976.63
2018-12-29T11:21:12.735Z,100976.37
2018-12-29T11:23:41.539Z,100974.36
2018-12-29T11:26:10.679Z,100960.84
2018-12-29T11:28:40.084Z,100964.02
2018-12-29T11:31:09.025Z,100962.70
2018-12-29T11:33:37.843Z,100962.51
2018-12-29T11:36:06.762Z,100965.64
2018-12-29T11:43:58.019Z,100947.42
2018-12-29T11:46:26.819Z,100953.85
2018-12-29T11:48:55.726Z,100951.86
2018-12-29T11:51:24.842Z,100940.91
2018-12-29T11:53:53.587Z,100948.84
2018-12-29T11:56:41.678Z,100937.91
2018-12-29T11:59:12.305Z,100928.84
2018-12-29T12:01:41.124Z,100931.03
2018-12-29T12:04:10.011Z,100934.47
2018-12-29T12:06:38.874Z,100922.05
2018-12-29T12:09:07.869Z,100918.66
2018-12-29T12:11:37.289Z,100922.27
2018-12-29T12:14:06.220Z,100917.52
2018-12-29T12:16:35.027Z,100920.86
2018-12-29T12:19:03.945Z,100918.00
2018-12-29T12:21:32.979Z,100917.97
2018-12-29T12:26:36.002Z,100919.64
2018-12-29T12:29:04.837Z,100941.89
2018-12-29T12:31:35.295Z,100942.52
2018-12-29T12:34:23.377Z,100949.61
2018-12-29T12:36:52.363Z,100948.78
2018-12-29T12:39:21.238Z,100955.38
2018-12-29T12:41:50.035Z,100955.92
2018-12-29T12:44:19.003Z,100948.05
2018-12-29T12:49:43.141Z,100927.53
2018-12-29T12:52:12.013Z,100916.17
2018-12-29T12:57:34.207Z,100939.19
2018-12-29T13:00:44.917Z,100939.48
2018-12-29T13:03:14.040Z,100920.40
2018-12-29T13:08:36.910Z,100913.34
2018-12-29T13:11:25.179Z,100917.39
2018-12-29T13:13:53.979Z,100917.73
2018-12-29T13:16:22.682Z,100911.69
2018-12-29T13:19:10.738Z,100912.63
2018-12-29T13:21:39.832Z,100905.41
2018-12-29T13:26:43.334Z,100897.25
2018-12-29T13:32:05.424Z,100907.24
2018-12-29T13:34:54.561Z,100901.09
2018-12-29T13:37:25.360Z,100897.92
2018-12-29T13:39:54.711Z,100893.64
2018-12-29T13:42:23.410Z,100890.60
2018-12-29T13:44:52.942Z,100887.70
2018-12-29T13:48:01.707Z,100877.14
2018-12-29T13:50:30.873Z,100872.13
2018-12-29T13:52:59.735Z,100859.08
2018-12-29T13:55:28.672Z,100865.75
2018-12-29T13:57:57.397Z,100866.95
2018-12-29T14:03:00.565Z,100873.20
2018-12-29T14:08:04.857Z,100854.97
2018-12-29T14:10:33.804Z,100856.32
2018-12-29T14:13:02.719Z,100856.78
2018-12-29T14:15:33.182Z,100841.13
2018-12-29T14:18:01.900Z,100845.85
2018-12-29T14:20:30.646Z,100854.06
2018-12-29T14:22:59.571Z,100844.98
2018-12-29T14:25:28.463Z,100835.75
2018-12-29T14:27:59.397Z,100810.47
2018-12-29T14:30:47.221Z,100801.34
2018-12-29T14:33:16.059Z,100792.53
2018-12-29T14:35:47.035Z,100796.08
2018-12-29T14:38:15.897Z,100806.13
2018-12-29T14:40:44.702Z,100836.63
2018-12-29T14:43:13.712Z,100848.36
2018-12-29T14:45:42.506Z,100848.29
2018-12-29T14:48:12.998Z,100837.47
2018-12-29T14:50:41.837Z,100844.31
2018-12-29T14:53:10.857Z,100851.97
2018-12-29T14:55:40.511Z,100851.58
2018-12-29T14:58:28.371Z,100856.48
2018-12-29T15:03:31.046Z,100865.63
2018-12-29T15:06:19.154Z,100867.81
2018-12-29T15:09:07.212Z,100864.32
2018-12-29T15:14:10.558Z,100875.20
2018-12-29T15:19:16.189Z,100870.08
2018-12-29T15:22:03.974Z,100866.39
2018-12-29T15:24:52.297Z,100861.50
2018-12-29T15:27:21.287Z,100843.05
2018-12-29T15:30:09.623Z,100831.38
2018-12-29T15:32:38.569Z,100820.13
2018-12-29T15:35:09.083Z,100815.78
2018-12-29T15:38:17.578Z,100836.48
2018-12-29T15:40:48.161Z,100839.88
2018-12-29T15:43:17.266Z,100839.84
2018-12-29T15:45:46.050Z,100834.19
2018-12-29T15:48:14.925Z,100829.95
2018-12-29T15:53:18.487Z,100827.73
2018-12-29T15:58:21.928Z,100830.53
2018-12-29T16:00:50.728Z,100833.16
2018-12-29T16:03:38.604Z,100823.66
2018-12-29T16:06:07.438Z,100832.00
2018-12-29T16:08:36.259Z,100837.16
2018-12-29T16:14:41.685Z,100808.14
2018-12-29T16:22:34.756Z,100788.81
2018-12-29T16:28:16.928Z,100788.83
2018-12-29T16:31:04.821Z,100783.17
2018-12-29T16:33:35.262Z,100780.64
2018-12-29T16:36:05.795Z,100777.13
2018-12-29T16:38:34.487Z,100781.06
2018-12-29T16:41:45.479Z,100786.34
2018-12-29T16:44:33.501Z,100792.74
2018-12-29T16:47:21.637Z,100809.55
2018-12-29T16:49:50.346Z,100807.30
2018-12-29T16:52:20.852Z,100808.81
2018-12-29T16:54:49.571Z,100802.85
2018-12-29T16:57:37.702Z,100814.70
2018-12-29T17:00:06.714Z,100813.87
2018-12-29T17:02:54.728Z,100806.00
2018-12-29T17:05:23.432Z,100814.20
2018-12-29T17:07:53.881Z,100804.67
2018-12-29T17:10:22.601Z,100799.03
2018-12-29T17:13:10.605Z,100806.51
2018-12-29T17:15:39.309Z,100795.12
2018-12-29T17:18:10.332Z,100789.98
2018-12-29T17:20:39.045Z,100785.63
2018-12-29T17:23:07.746Z,100784.72
2018-12-29T17:25:57.642Z,100772.56
2018-12-29T17:28:28.490Z,100768.66
2018-12-29T17:33:44.404Z,100781.30
2018-12-29T17:38:47.854Z,100756.02
2018-12-29T17:44:09.652Z,100772.65
2018-12-29T17:46:57.589Z,100777.88
2018-12-29T17:49:26.352Z,100779.95
2018-12-29T17:51:56.782Z,100791.34
2018-12-29T17:54:25.475Z,100790.05
2018-12-29T17:57:13.504Z,100780.89
2018-12-29T17:59:42.193Z,100763.48
2018-12-29T18:02:10.985Z,100779.55
2018-12-29T18:04:40.031Z,100780.86
2018-12-29T18:07:09.227Z,100776.95
2018-12-29T18:09:38.004Z,100776.88
2018-12-29T18:12:06.685Z,100782.87
2018-12-29T18:14:35.699Z,100786.41
2018-12-29T18:17:23.750Z,100789.89
2018-12-29T18:20:11.768Z,100778.12
2018-12-29T18:22:40.468Z,100777.27
2018-12-29T18:25:09.232Z,100792.05
2018-12-29T18:30:13.745Z,100792.64
2018-12-29T18:35:29.596Z,100802.85
2018-12-29T18:37:58.304Z,100808.56
2018-12-29T18:40:27.368Z,100798.00
2018-12-29T18:42:56.120Z,100798.06
2018-12-29T18:45:26.612Z,100797.23
2018-12-29T18:47:55.319Z,100805.48
2018-12-29T18:50:24.097Z,100800.77
2018-12-29T18:52:52.856Z,100793.81
2018-12-29T18:55:21.643Z,100803.38
2018-12-29T18:57:52.124Z,100792.45
2018-12-29T19:00:20.888Z,100797.38
2018-12-29T19:02:49.620Z,100802.17
2018-12-29T19:05:18.392Z,100792.55
2018-12-29T19:07:47.167Z,100789.04
2018-12-29T19:10:15.927Z,100781.18
2018-12-29T19:12:44.623Z,100780.75
2018-12-29T19:17:47.772Z,100778.11
2018-12-29T19:22:53.276Z,100776.86
2018-12-29T19:33:27.595Z,100759.85
2018-12-29T19:35:56.704Z,100758.55
2018-12-29T19:38:25.395Z,100763.34
2018-12-29T19:40:54.721Z,100758.91
2018-12-29T19:43:25.127Z,100750.67
2018-12-29T19:45:53.806Z,100759.86
2018-12-29T19:48:22.791Z,100756.77
2018-12-29T19:50:53.205Z,100759.31
2018-12-29T19:55:57.546Z,100742.22
2018-12-29T20:01:20.206Z,100739.98
2018-12-29T20:06:23.039Z,100733.50
2018-12-29T20:09:10.933Z,100731.73
2018-12-29T20:11:39.630Z,100729.98
2018-12-29T20:14:08.341Z,100734.38
2018-12-29T20:16:37.030Z,100726.97
2018-12-29T20:19:25.189Z,100723.89
2018-12-29T20:21:54.154Z,100731.27
2018-12-29T20:24:24.545Z,100737.33
2018-12-29T20:26:53.223Z,100739.05
2018-12-29T20:29:22.320Z,100736.89
2018-12-29T20:37:12.595Z,100739.14
2018-12-29T20:39:41.285Z,100736.39
2018-12-29T20:42:09.984Z,100738.66
2018-12-29T20:44:39.030Z,100736.02
2018-12-29T20:47:27.038Z,100739.09
2018-12-29T20:49:55.780Z,100739.86
2018-12-29T20:54:58.966Z,100730.96
2018-12-29T20:57:27.650Z,100725.27
2018-12-29T20:59:56.365Z,100724.83
2018-12-29T21:02:25.048Z,100730.14
2018-12-29T21:05:13.075Z,100722.23
2018-12-29T21:07:41.830Z,100723.56
2018-12-29T21:12:44.719Z,100706.98
2018-12-29T21:15:33.065Z,100705.16
2018-12-29T21:20:49.662Z,100712.59
2018-12-29T21:23:18.686Z,100717.77
2018-12-29T21:25:47.364Z,100721.47
2018-12-29T21:28:16.044Z,100717.87
2018-12-29T21:30:44.722Z,100712.24
2018-12-29T21:33:13.496Z,100706.61
2018-12-29T21:35:42.197Z,100704.06
2018-12-29T21:38:12.703Z,100708.80
2018-12-29T21:40:41.461Z,100713.94
2018-12-29T21:43:10.133Z,100711.72
2018-12-29T21:48:13.480Z,100709.13
2018-12-29T21:50:42.193Z,100712.30
2018-12-29T21:53:30.118Z,100709.18
2018-12-29T21:55:58.813Z,100713.58
2018-12-29T21:58:27.847Z,100707.98
2018-12-29T22:00:56.830Z,100710.16
2018-12-29T22:03:25.528Z,100708.72
2018-12-29T22:05:54.216Z,100709.41
2018-12-29T22:08:22.928Z,100701.53
2018-12-29T22:11:10.935Z,100702.98
2018-12-29T22:13:59.022Z,100701.32
2018-12-29T22:16:28.047Z,100690.94
2018-12-29T22:21:30.684Z,100699.23
2018-12-29T22:23:59.377Z,100704.45
2018-12-29T22:26:28.071Z,100706.56
2018-12-29T22:29:16.073Z,100712.16
2018-12-29T22:31:45.069Z,100717.69
2018-12-29T22:34:14.051Z,100720.63
2018-12-29T22:36:42.737Z,100727.33
2018-12-29T22:39:11.500Z,100735.76
2018-12-29T22:41:40.195Z,100731.28
2018-12-29T22:46:43.680Z,100725.71
2018-12-29T22:51:47.067Z,100726.53
2018-12-29T22:56:52.377Z,100724.76
2018-12-29T22:59:21.156Z,100732.70
2018-12-29T23:01:49.848Z,100738.41
2018-12-29T23:04:18.585Z,100743.17
2018-12-29T23:06:47.549Z,100734.34
2018-12-29T23:09:17.974Z,100724.40
2018-12-29T23:11:46.729Z,100729.48
2018-12-29T23:14:15.428Z,100725.08
2018-12-29T23:16:44.440Z,100714.59
2018-12-29T23:19:13.138Z,100717.58
2018-12-29T23:22:01.428Z,100717.44
2018-12-29T23:24:30.499Z,100721.50
2018-12-29T23:26:59.173Z,100711.51
2018-12-29T23:29:27.864Z,100702.88
2018-12-29T23:31:56.560Z,100696.34
2018-12-29T23:37:15.151Z,100702.91
2018-12-29T23:39:44.184Z,100708.20
2018-12-29T23:42:13.247Z,100705.14
2018-12-29T23:47:36.148Z,100721.20
2018-12-29T23:50:05.266Z,100730.82
2018-12-29T23:55:41.538Z,100727.63
2018-12-29T23:58:11.990Z,100719.81
